Time;durP1;ratioP1;P1;durP2;ratioP2;P2;SDS_P1;SDS_P2;PMS_P1;PMS_P2;Temp;Humidity;BMP_temperature;BMP_pressure;BME280_temperature;BME280_humidity;BME280_pressure;Samples;Min_cycle;Max_cycle;Signal;HPM_P1;HPM_P2
2020/12/08 05:01:25;;;;;;;28.73;20.70;;;2.90;99.90;;;;;;5610098;23;20624;-62
2020/12/08 05:03:59;;;;;;;29.40;22.07;;;2.80;99.90;;;;;;4976535;28;20441;-63
2020/12/08 05:06:26;;;;;;;34.50;23.87;;;2.80;99.90;;;;;;4977223;28;20435;-63
2020/12/08 05:09:06;;;;;;;34.47;25.17;;;2.80;99.90;;;;;;4976094;28;20858;-63
2020/12/08 05:11:33;;;;;;;35.07;23.93;;;2.80;99.90;;;;;;4975904;28;20998;-61
2020/12/08 05:14:01;;;;;;;33.10;23.03;;;2.80;99.90;;;;;;4976356;28;20447;-63
2020/12/08 05:16:28;;;;;;;30.27;21.50;;;2.80;99.90;;;;;;4976531;28;20800;-63
2020/12/08 05:19:05;;;;;;;34.57;23.27;;;2.90;99.90;;;;;;4976038;28;20451;-64
2020/12/08 05:21:32;;;;;;;31.70;23.10;;;2.90;99.90;;;;;;4976099;28;20498;-63
2020/12/08 05:23:58;;;;;;;30.30;21.77;;;2.90;99.90;;;;;;4975983;28;20935;-61
2020/12/08 05:26:24;;;;;;;28.63;21.93;;;2.90;99.90;;;;;;4975981;28;20818;-64
2020/12/08 05:28:59;;;;;;;34.50;24.67;;;3.00;99.90;;;;;;4975953;28;20455;-64
2020/12/08 05:31:26;;;;;;;31.67;21.87;;;3.00;99.90;;;;;;4975968;28;20498;-62
2020/12/08 05:33:58;;;;;;;34.07;23.03;;;3.00;99.90;;;;;;4976228;28;20501;-63
2020/12/08 05:36:26;;;;;;;31.80;21.63;;;3.10;99.90;;;;;;4975765;28;20490;-62
2020/12/08 05:38:59;;;;;;;30.80;22.17;;;3.00;99.90;;;;;;4975666;28;20840;-62
2020/12/08 05:41:30;;;;;;;27.37;19.97;;;3.00;99.90;;;;;;4975059;28;20903;-63
2020/12/08 05:44:03;;;;;;;28.87;20.60;;;3.10;99.90;;;;;;4975126;28;20493;-61
2020/12/08 05:46:39;;;;;;;30.53;20.53;;;3.10;99.90;;;;;;4974730;28;20443;-61
2020/12/08 05:49:06;;;;;;;28.23;20.87;;;3.00;99.90;;;;;;4975980;28;20434;-63
2020/12/08 05:51:39;;;;;;;30.97;22.17;;;3.10;99.90;;;;;;4975071;28;20481;-61
2020/12/08 05:54:05;;;;;;;26.60;19.50;;;3.00;99.90;;;;;;4975085;28;20458;-63
2020/12/08 05:56:34;;;;;;;30.20;20.70;;;3.00;99.90;;;;;;4975460;28;20451;-63
2020/12/08 05:59:00;;;;;;;31.93;21.70;;;3.00;99.90;;;;;;4975042;28;20455;-61
2020/12/08 06:01:26;;;;;;;30.30;21.30;;;3.00;99.90;;;;;;4974649;28;20478;-63
2020/12/08 06:03:56;;;;;;;33.00;22.07;;;3.00;99.90;;;;;;4974855;28;20457;-63
2020/12/08 06:06:23;;;;;;;31.93;22.23;;;3.00;99.90;;;;;;4974634;28;20458;-62
2020/12/08 06:08:49;;;;;;;39.73;24.13;;;3.10;99.90;;;;;;4974875;28;20813;-62
2020/12/08 06:11:16;;;;;;;30.70;22.60;;;3.80;99.90;;;;;;4974503;28;20478;-63
2020/12/08 06:13:47;;;;;;;32.23;22.03;;;3.80;99.90;;;;;;4974953;28;20439;-64
2020/12/08 06:16:15;;;;;;;31.43;23.13;;;3.80;99.90;;;;;;4974659;28;20831;-62
2020/12/08 06:18:41;;;;;;;32.40;22.60;;;3.80;99.90;;;;;;4975026;28;20454;-62
2020/12/08 06:21:19;;;;;;;32.90;23.10;;;3.70;99.90;;;;;;4974639;28;20497;-63
2020/12/08 06:23:46;;;;;;;30.37;22.00;;;3.50;99.90;;;;;;4974404;28;20443;-62
2020/12/08 06:26:13;;;;;;;31.47;22.27;;;3.40;99.90;;;;;;4974660;28;20464;-65
2020/12/08 06:28:39;;;;;;;31.00;22.20;;;3.30;99.90;;;;;;4974643;28;20823;-64
2020/12/08 06:31:07;;;;;;;32.10;22.50;;;3.10;99.90;;;;;;4974601;28;20471;-64
2020/12/08 06:33:45;;;;;;;30.00;21.80;;;3.10;99.90;;;;;;4974323;28;20942;-64
2020/12/08 06:36:11;;;;;;;34.20;23.97;;;3.10;99.90;;;;;;4974470;28;20446;-64
2020/12/08 06:38:38;;;;;;;35.47;24.07;;;3.10;99.90;;;;;;4974354;28;20451;-64
2020/12/08 06:41:05;;;;;;;34.70;23.40;;;3.00;99.90;;;;;;4974175;28;20998;-63
2020/12/08 06:43:31;;;;;;;34.37;23.03;;;2.90;99.90;;;;;;4974233;28;20450;-64
2020/12/08 06:46:07;;;;;;;38.87;24.93;;;2.80;99.90;;;;;;4974606;28;20477;-64
2020/12/08 06:48:35;;;;;;;37.27;23.87;;;2.70;99.90;;;;;;4974595;28;20446;-64
2020/12/08 06:51:01;;;;;;;36.87;23.67;;;2.60;99.90;;;;;;4974691;28;20470;-64
2020/12/08 06:53:28;;;;;;;33.00;22.70;;;2.60;99.90;;;;;;4974701;28;20458;-64
2020/12/08 06:55:54;;;;;;;35.97;23.17;;;2.50;99.90;;;;;;4974912;28;20462;-64
2020/12/08 06:58:21;;;;;;;37.13;24.40;;;2.40;99.90;;;;;;4974560;28;20470;-64
2020/12/08 07:00:47;;;;;;;39.50;25.33;;;2.50;99.90;;;;;;4974163;28;20493;-64
2020/12/08 07:03:14;;;;;;;39.13;24.83;;;2.40;99.90;;;;;;4974576;28;20446;-64
2020/12/08 07:05:41;;;;;;;38.83;24.90;;;2.30;99.90;;;;;;4974398;28;20469;-64
2020/12/08 07:08:09;;;;;;;37.27;24.57;;;2.20;99.90;;;;;;4974552;28;20450;-64
2020/12/08 07:10:39;;;;;;;36.57;23.20;;;2.30;99.90;;;;;;4974391;28;20471;-64
2020/12/08 07:13:13;;;;;;;36.33;24.37;;;2.30;99.90;;;;;;4974405;28;20458;-64
2020/12/08 07:15:41;;;;;;;34.87;23.50;;;2.30;99.90;;;;;;4974494;28;20462;-64
2020/12/08 07:18:08;;;;;;;37.23;25.00;;;2.30;99.90;;;;;;4974808;28;20481;-64
2020/12/08 07:20:35;;;;;;;36.87;22.73;;;2.40;99.90;;;;;;4977895;28;20898;-62
2020/12/08 07:23:03;;;;;;;35.10;22.83;;;2.30;99.90;;;;;;4978025;28;20459;-64
2020/12/08 07:25:30;;;;;;;40.83;25.33;;;2.40;99.90;;;;;;4978928;28;20435;-64
2020/12/08 07:27:56;;;;;;;36.07;25.37;;;2.30;99.90;;;;;;4977769;28;20461;-64
2020/12/08 07:30:24;;;;;;;33.37;23.57;;;2.40;99.90;;;;;;4977595;28;20931;-64
2020/12/08 07:32:51;;;;;;;31.30;22.20;;;2.40;99.90;;;;;;4977818;28;21020;-64
2020/12/08 07:35:22;;;;;;;33.83;23.07;;;2.40;99.90;;;;;;4978046;28;20462;-64
2020/12/08 07:37:51;;;;;;;32.47;22.10;;;2.50;99.90;;;;;;4977522;28;20457;-63
2020/12/08 07:40:17;;;;;;;32.87;22.70;;;2.60;99.90;;;;;;4977612;28;20481;-62
2020/12/08 07:42:48;;;;;;;32.20;22.93;;;3.10;99.90;;;;;;4978242;28;20451;-62
2020/12/08 07:45:14;;;;;;;30.90;21.03;;;3.70;99.90;;;;;;4977680;28;20463;-62
2020/12/08 07:47:40;;;;;;;24.70;19.77;;;4.50;99.90;;;;;;4977630;28;20461;-62
2020/12/08 07:50:08;;;;;;;24.33;19.90;;;5.20;99.90;;;;;;4977755;28;20447;-63
2020/12/08 07:52:34;;;;;;;24.93;20.90;;;5.60;99.90;;;;;;4977724;28;20470;-62
2020/12/08 07:55:00;;;;;;;24.63;20.43;;;5.50;99.90;;;;;;4977902;28;20494;-62
2020/12/08 07:57:26;;;;;;;26.40;21.33;;;5.40;99.90;;;;;;4977508;28;20455;-63
2020/12/08 07:59:53;;;;;;;28.80;21.30;;;5.40;99.90;;;;;;4976953;28;21054;-63
2020/12/08 08:05:41;;;;;;;30.73;22.23;;;4.80;99.90;;;;;;4977158;28;20414;-63
2020/12/08 08:08:08;;;;;;;33.10;24.53;;;4.70;99.90;;;;;;4977873;28;20505;-63
2020/12/08 08:10:34;;;;;;;29.23;22.40;;;4.60;99.90;;;;;;4977769;28;20470;-63
2020/12/08 08:13:00;;;;;;;26.83;21.33;;;4.50;99.90;;;;;;4977058;28;20458;-62
2020/12/08 08:15:26;;;;;;;33.70;24.63;;;4.40;99.90;;;;;;4976950;28;20451;-62
2020/12/08 08:17:52;;;;;;;30.00;22.70;;;4.40;99.90;;;;;;4977206;28;20461;-62
2020/12/08 08:20:18;;;;;;;28.53;21.90;;;4.30;99.90;;;;;;4976607;28;20479;-64
2020/12/08 08:22:45;;;;;;;28.80;21.97;;;4.10;99.90;;;;;;4977669;28;20480;-62
2020/12/08 08:25:11;;;;;;;27.27;21.83;;;4.00;99.90;;;;;;4977405;28;20590;-64
2020/12/08 08:27:38;;;;;;;30.37;21.87;;;4.00;99.90;;;;;;4977007;28;20458;-62
2020/12/08 08:30:05;;;;;;;29.07;22.13;;;4.10;99.90;;;;;;4976487;28;20477;-64
2020/12/08 08:32:31;;;;;;;29.90;22.30;;;4.10;99.90;;;;;;4976713;28;20474;-63
2020/12/08 08:34:57;;;;;;;25.90;20.90;;;4.30;99.90;;;;;;4976866;28;20462;-64
2020/12/08 08:37:23;;;;;;;30.40;22.13;;;4.50;99.90;;;;;;4976758;28;20454;-63
2020/12/08 08:39:50;;;;;;;25.83;19.90;;;4.50;99.90;;;;;;4976485;28;20481;-64
2020/12/08 08:42:16;;;;;;;26.93;20.83;;;4.80;99.90;;;;;;4976251;28;21053;-64
2020/12/08 08:44:42;;;;;;;27.63;22.27;;;5.20;99.90;;;;;;4976074;28;20841;-63
2020/12/08 08:47:08;;;;;;;27.50;21.80;;;5.60;99.90;;;;;;4976284;28;20873;-64
2020/12/08 08:49:35;;;;;;;27.43;20.07;;;5.90;99.90;;;;;;4976534;28;20447;-63
2020/12/08 08:52:01;;;;;;;26.43;19.93;;;6.20;99.90;;;;;;4975982;28;20983;-64
2020/12/08 08:54:27;;;;;;;24.07;20.80;;;6.80;99.90;;;;;;4976413;28;20478;-63
2020/12/08 08:56:55;;;;;;;25.30;21.30;;;7.80;99.90;;;;;;4977157;28;20461;-63
2020/12/08 08:59:21;;;;;;;26.23;20.43;;;8.40;99.90;;;;;;4976659;28;20871;-63
2020/12/08 09:01:48;;;;;;;25.20;20.70;;;8.60;99.90;;;;;;4976036;28;20510;-63
2020/12/08 09:04:14;;;;;;;24.70;21.30;;;8.60;99.90;;;;;;4976173;28;20457;-63
2020/12/08 09:06:40;;;;;;;23.93;19.87;;;8.10;99.90;;;;;;4976044;28;20455;-64
2020/12/08 09:09:06;;;;;;;24.40;19.90;;;7.80;99.90;;;;;;4975710;28;20963;-62
2020/12/08 09:11:32;;;;;;;25.90;21.70;;;7.50;99.90;;;;;;4976740;28;20805;-62
2020/12/08 09:13:59;;;;;;;27.97;22.97;;;7.00;99.90;;;;;;4976140;28;20459;-62
2020/12/08 09:16:26;;;;;;;27.03;20.73;;;6.70;99.90;;;;;;4975702;28;20451;-62
2020/12/08 09:18:52;;;;;;;26.27;21.43;;;6.50;99.90;;;;;;4975618;28;20462;-64
2020/12/08 09:21:18;;;;;;;27.57;21.67;;;6.30;99.90;;;;;;4975602;28;20538;-63
2020/12/08 09:23:44;;;;;;;26.07;21.10;;;6.10;99.90;;;;;;4975777;28;20458;-62
2020/12/08 09:26:11;;;;;;;28.40;21.73;;;6.10;99.90;;;;;;4976001;28;20450;-62
2020/12/08 09:28:37;;;;;;;27.07;21.07;;;6.00;99.90;;;;;;4975709;28;20454;-62
2020/12/08 09:31:04;;;;;;;27.13;21.60;;;5.80;99.90;;;;;;4975586;28;20478;-63
2020/12/08 09:33:31;;;;;;;27.60;20.50;;;5.80;99.90;;;;;;4975320;28;20458;-64
2020/12/08 09:35:57;;;;;;;29.30;21.77;;;5.60;99.90;;;;;;4975515;28;20915;-63
2020/12/08 09:38:24;;;;;;;24.87;19.87;;;5.60;99.90;;;;;;4975219;28;20830;-63
2020/12/08 09:40:50;;;;;;;24.70;20.07;;;5.70;99.90;;;;;;4974786;28;20513;-62
2020/12/08 09:43:16;;;;;;;27.80;21.43;;;5.60;99.90;;;;;;4975317;28;20970;-62
2020/12/08 09:45:44;;;;;;;27.50;21.27;;;5.30;99.90;;;;;;4975315;28;20450;-62
2020/12/08 09:48:11;;;;;;;30.60;21.20;;;5.40;99.90;;;;;;4974964;28;21002;-62
2020/12/08 09:50:37;;;;;;;27.13;20.33;;;5.30;99.90;;;;;;4975293;28;20478;-62
2020/12/08 09:53:03;;;;;;;28.30;20.60;;;5.20;99.90;;;;;;4975134;28;20454;-62
2020/12/08 09:55:29;;;;;;;29.00;20.57;;;5.30;99.90;;;;;;4975425;28;20470;-63
2020/12/08 09:57:55;;;;;;;27.13;20.83;;;5.30;99.90;;;;;;4975707;28;20450;-63
2020/12/08 10:00:21;;;;;;;26.97;20.17;;;5.40;99.90;;;;;;4974986;28;20505;-63
2020/12/08 10:02:48;;;;;;;25.30;19.87;;;5.20;99.90;;;;;;4974917;28;20489;-63
2020/12/08 10:05:15;;;;;;;29.30;20.93;;;5.20;99.90;;;;;;4974872;28;20820;-63
2020/12/08 10:07:42;;;;;;;31.20;22.17;;;5.10;99.90;;;;;;4975082;28;20458;-63
2020/12/08 10:10:09;;;;;;;30.60;21.40;;;5.20;99.90;;;;;;4975041;28;20549;-63
2020/12/08 10:12:35;;;;;;;29.70;21.80;;;5.10;99.90;;;;;;4974817;28;20525;-64
2020/12/08 10:15:01;;;;;;;25.77;19.80;;;5.20;99.90;;;;;;4975146;28;20455;-64
2020/12/08 10:17:27;;;;;;;22.07;17.80;;;5.30;99.90;;;;;;4974765;28;20450;-64
2020/12/08 10:19:54;;;;;;;27.00;20.67;;;5.20;99.90;;;;;;4975013;28;20482;-63
2020/12/08 10:22:21;;;;;;;29.47;19.57;;;5.20;99.90;;;;;;4974892;28;20475;-64
2020/12/08 10:24:47;;;;;;;25.77;19.83;;;5.60;99.90;;;;;;4975398;28;20459;-63
2020/12/08 10:27:13;;;;;;;23.27;18.53;;;6.40;99.90;;;;;;4974522;28;20823;-63
2020/12/08 10:29:39;;;;;;;21.80;18.33;;;7.60;99.90;;;;;;4974641;28;20942;-63
2020/12/08 10:32:05;;;;;;;21.70;19.30;;;8.90;99.90;;;;;;4974974;28;20470;-63
2020/12/08 10:34:32;;;;;;;19.73;17.63;;;10.10;99.90;;;;;;4975164;28;20459;-63
2020/12/08 10:36:58;;;;;;;22.43;20.10;;;10.90;99.90;;;;;;4975007;28;20461;-63
2020/12/08 10:39:25;;;;;;;23.07;19.03;;;11.50;99.90;;;;;;4974495;28;20457;-62
2020/12/08 10:41:55;;;;;;;21.07;18.13;;;11.70;99.90;;;;;;4974794;28;20471;-63
2020/12/08 10:44:21;;;;;;;22.23;19.93;;;12.00;99.90;;;;;;4974935;28;20458;-63
2020/12/08 10:46:49;;;;;;;20.50;18.40;;;11.80;99.90;;;;;;4974659;28;20455;-63
2020/12/08 10:49:15;;;;;;;21.63;19.00;;;11.80;99.90;;;;;;4974738;28;20455;-62
2020/12/08 10:51:42;;;;;;;20.53;17.73;;;10.90;99.90;;;;;;4974715;28;20463;-62
2020/12/08 10:54:08;;;;;;;22.07;19.63;;;10.30;99.90;;;;;;4978919;28;20455;-62
2020/12/08 10:56:35;;;;;;;24.20;20.17;;;9.80;99.90;;;;;;4979366;28;20450;-65
2020/12/08 10:59:01;;;;;;;22.97;20.10;;;9.10;99.90;;;;;;4978645;28;20451;-63
2020/12/08 11:01:27;;;;;;;22.53;20.10;;;8.70;99.90;;;;;;4978243;28;20493;-64
2020/12/08 11:03:54;;;;;;;24.77;19.50;;;8.10;99.90;;;;;;4978556;28;20481;-64
2020/12/08 11:06:23;;;;;;;25.37;19.23;;;7.70;99.90;;;;;;4978545;28;20454;-64
2020/12/08 11:08:50;;;;;;;25.43;20.80;;;7.40;99.90;;;;;;4978780;28;20458;-63
2020/12/08 11:11:21;;;;;;;23.70;20.20;;;7.20;99.90;;;;;;4980396;28;20470;-63
2020/12/08 11:13:48;;;;;;;20.90;17.97;;;7.00;99.90;;;;;;4981086;28;20439;-64
2020/12/08 11:16:15;;;;;;;22.60;18.20;;;6.80;99.90;;;;;;4979790;28;20462;-65
2020/12/08 11:18:41;;;;;;;24.27;19.10;;;6.60;99.90;;;;;;4979287;28;20454;-65
2020/12/08 11:21:08;;;;;;;22.27;19.00;;;6.70;99.90;;;;;;4978225;28;20537;-65
2020/12/08 11:23:34;;;;;;;23.27;18.50;;;6.90;99.90;;;;;;4978103;28;20461;-65
2020/12/08 11:26:01;;;;;;;22.90;19.03;;;7.00;99.90;;;;;;4978853;28;20568;-65
2020/12/08 11:28:27;;;;;;;23.63;19.40;;;7.00;99.90;;;;;;4979669;28;20439;-65
2020/12/08 11:30:55;;;;;;;21.07;18.10;;;7.10;99.90;;;;;;4979425;28;20470;-65
2020/12/08 11:33:21;;;;;;;21.23;18.33;;;7.00;99.90;;;;;;4979441;28;20454;-66
2020/12/08 11:35:49;;;;;;;22.80;18.83;;;7.00;99.90;;;;;;4979802;28;20458;-66
2020/12/08 11:38:15;;;;;;;23.50;18.83;;;6.90;99.90;;;;;;4982264;28;20489;-66
2020/12/08 11:40:42;;;;;;;22.90;19.57;;;6.90;99.90;;;;;;4978431;28;21029;-66
2020/12/08 11:43:08;;;;;;;22.40;18.47;;;6.80;99.90;;;;;;4977629;28;20959;-66
2020/12/08 11:45:34;;;;;;;19.23;17.10;;;6.80;99.90;;;;;;4977534;28;20866;-66
2020/12/08 11:48:01;;;;;;;22.60;17.00;;;6.80;99.90;;;;;;4977749;28;20455;-66
2020/12/08 11:50:27;;;;;;;22.27;19.43;;;6.80;99.90;;;;;;4978222;28;20779;-65
2020/12/08 11:52:53;;;;;;;20.60;17.03;;;6.90;99.90;;;;;;4977297;28;20489;-66
2020/12/08 11:55:19;;;;;;;21.77;17.73;;;6.90;99.90;;;;;;4977588;28;20862;-65
2020/12/08 11:57:46;;;;;;;21.20;16.83;;;7.00;99.90;;;;;;4979445;28;20442;-65
2020/12/08 12:00:12;;;;;;;22.97;16.80;;;7.10;99.90;;;;;;4982668;28;20482;-65
2020/12/08 12:02:38;;;;;;;22.57;17.87;;;7.20;99.90;;;;;;4979770;28;20481;-64
2020/12/08 12:05:05;;;;;;;18.30;16.30;;;7.60;99.90;;;;;;4981525;28;20462;-64
2020/12/08 12:07:32;;;;;;;19.03;15.37;;;7.90;99.90;;;;;;4982684;28;20457;-65
2020/12/08 12:09:58;;;;;;;22.30;18.27;;;7.80;99.90;;;;;;4979690;28;20501;-65
2020/12/08 12:12:24;;;;;;;19.13;16.87;;;8.00;99.90;;;;;;4978276;28;21001;-65
2020/12/08 12:14:50;;;;;;;57.10;41.50;;;8.10;99.90;;;;;;4977760;28;20948;-65
2020/12/08 12:17:16;;;;;;;22.23;19.43;;;8.00;99.90;;;;;;4978192;28;20765;-65
2020/12/08 12:19:43;;;;;;;28.93;22.60;;;7.90;99.90;;;;;;4978034;28;20498;-66
2020/12/08 12:22:10;;;;;;;20.23;17.60;;;7.80;99.90;;;;;;4977844;28;20471;-65
2020/12/08 12:24:37;;;;;;;19.20;17.13;;;7.80;99.90;;;;;;4977906;28;20455;-65
2020/12/08 12:27:04;;;;;;;20.03;17.70;;;7.70;99.90;;;;;;4977614;28;20454;-65
2020/12/08 12:29:31;;;;;;;21.50;17.97;;;7.70;99.90;;;;;;4977371;28;20450;-65
2020/12/08 12:31:57;;;;;;;21.73;17.97;;;7.60;99.90;;;;;;4977749;28;20889;-66
2020/12/08 12:34:23;;;;;;;21.80;18.53;;;7.40;99.90;;;;;;4977782;28;20435;-65
2020/12/08 12:36:50;;;;;;;24.00;19.30;;;7.30;99.90;;;;;;4977062;28;20454;-65
2020/12/08 12:39:18;;;;;;;22.60;19.60;;;7.30;99.90;;;;;;4977467;28;20439;-65
2020/12/08 12:41:44;;;;;;;21.00;17.77;;;7.30;99.90;;;;;;4977004;28;20513;-66
2020/12/08 12:44:11;;;;;;;23.80;18.03;;;7.20;99.90;;;;;;4976755;28;20462;-65
2020/12/08 12:46:37;;;;;;;21.03;18.23;;;7.00;99.90;;;;;;4977245;28;20457;-65
2020/12/08 12:49:03;;;;;;;22.23;18.60;;;7.00;99.90;;;;;;4976892;28;20454;-65
2020/12/08 12:51:31;;;;;;;26.60;20.13;;;7.00;99.90;;;;;;4977185;28;20471;-66
2020/12/08 12:53:57;;;;;;;19.73;17.40;;;6.90;99.90;;;;;;4976593;28;20460;-65
2020/12/08 12:56:27;;;;;;;23.90;18.50;;;6.90;99.90;;;;;;4976602;28;20462;-66
2020/12/08 12:58:54;;;;;;;23.63;18.70;;;6.80;99.90;;;;;;4976538;28;20860;-64
2020/12/08 13:01:20;;;;;;;24.37;18.80;;;6.80;99.90;;;;;;4976247;28;20486;-65
2020/12/08 13:03:47;;;;;;;20.80;17.40;;;6.70;99.90;;;;;;4976509;28;20457;-66
2020/12/08 13:06:14;;;;;;;21.67;17.80;;;6.80;99.90;;;;;;4976439;28;20461;-65
2020/12/08 13:08:40;;;;;;;21.73;18.10;;;6.80;99.90;;;;;;4976493;28;20454;-65
2020/12/08 13:11:07;;;;;;;32.30;19.10;;;6.80;99.90;;;;;;4975828;28;20842;-66
2020/12/08 13:13:34;;;;;;;20.33;17.60;;;6.70;99.90;;;;;;4976263;28;20439;-65
2020/12/08 13:16:02;;;;;;;20.47;17.20;;;6.80;99.90;;;;;;4975166;28;20455;-66
2020/12/08 13:18:28;;;;;;;21.03;17.33;;;6.80;99.90;;;;;;4975579;28;20943;-66
2020/12/08 13:20:56;;;;;;;21.43;17.90;;;6.70;99.90;;;;;;4975537;28;20486;-66
2020/12/08 13:23:22;;;;;;;20.10;17.30;;;6.80;99.90;;;;;;4975816;28;20473;-66
2020/12/08 13:25:49;;;;;;;22.33;17.60;;;6.80;99.90;;;;;;4976061;28;20458;-66
2020/12/08 13:28:15;;;;;;;20.37;17.70;;;6.90;99.90;;;;;;4975543;28;20896;-66
2020/12/08 13:30:42;;;;;;;19.93;16.80;;;6.90;99.90;;;;;;4975661;28;20975;-65
2020/12/08 13:33:08;;;;;;;20.93;18.17;;;6.80;99.90;;;;;;4975845;28;20465;-65
2020/12/08 13:35:34;;;;;;;21.27;18.47;;;6.80;99.90;;;;;;4975744;28;20457;-66
2020/12/08 13:38:00;;;;;;;19.40;16.77;;;6.70;99.90;;;;;;4976013;28;20928;-65
2020/12/08 13:40:26;;;;;;;23.10;18.87;;;6.70;99.90;;;;;;4975522;28;20579;-66
2020/12/08 13:42:53;;;;;;;24.87;18.17;;;6.70;99.90;;;;;;4975593;28;20635;-65
2020/12/08 13:45:19;;;;;;;22.23;17.43;;;6.50;99.90;;;;;;4975272;28;20939;-65
2020/12/08 13:47:46;;;;;;;23.00;17.17;;;6.40;99.90;;;;;;4975430;28;20454;-65
2020/12/08 13:50:13;;;;;;;21.23;18.50;;;6.60;99.90;;;;;;4975486;28;20454;-65
2020/12/08 13:52:39;;;;;;;22.00;17.80;;;6.50;99.90;;;;;;4975220;28;20502;-65
2020/12/08 13:55:06;;;;;;;22.23;18.27;;;6.30;99.90;;;;;;4975358;28;20455;-66
2020/12/08 13:57:32;;;;;;;23.50;18.93;;;6.40;99.90;;;;;;4975028;28;20451;-65
2020/12/08 13:59:58;;;;;;;23.27;20.00;;;6.40;99.90;;;;;;4975641;28;20924;-65
2020/12/08 14:02:24;;;;;;;22.60;17.93;;;6.40;99.90;;;;;;4975570;28;20490;-66
2020/12/08 14:04:51;;;;;;;22.10;18.30;;;6.30;99.90;;;;;;4976576;28;20451;-67
2020/12/08 14:07:19;;;;;;;21.70;18.13;;;6.30;99.90;;;;;;4976540;28;20454;-65
2020/12/08 14:09:45;;;;;;;21.60;18.30;;;6.40;99.90;;;;;;4975133;28;20535;-65
2020/12/08 14:12:11;;;;;;;24.20;18.30;;;6.30;99.90;;;;;;4975029;28;20570;-65
2020/12/08 14:14:37;;;;;;;20.07;17.70;;;6.40;99.90;;;;;;4975213;28;20469;-65
2020/12/08 14:17:03;;;;;;;22.47;17.63;;;6.40;99.90;;;;;;4975408;28;20866;-63
2020/12/08 14:19:30;;;;;;;22.00;18.27;;;6.40;99.90;;;;;;4974856;28;20455;-64
2020/12/08 14:21:57;;;;;;;19.97;16.83;;;6.40;99.90;;;;;;4974859;28;20483;-64
2020/12/08 14:24:25;;;;;;;21.13;16.37;;;6.40;99.90;;;;;;4974725;28;20508;-61
2020/12/08 14:26:51;;;;;;;21.80;17.30;;;6.40;99.90;;;;;;4974326;28;20505;-62
2020/12/08 14:29:17;;;;;;;24.23;18.80;;;6.30;99.90;;;;;;4974902;28;20457;-62
2020/12/08 14:31:44;;;;;;;24.57;19.00;;;6.20;99.90;;;;;;4974659;28;20475;-63
2020/12/08 14:34:10;;;;;;;21.43;17.43;;;6.20;99.90;;;;;;4974666;28;20827;-63
2020/12/08 14:36:37;;;;;;;24.20;18.07;;;6.30;99.90;;;;;;4974825;28;20461;-63
2020/12/08 14:39:06;;;;;;;21.60;18.17;;;6.20;99.90;;;;;;4974715;28;20529;-63
2020/12/08 14:41:32;;;;;;;23.03;18.30;;;6.10;99.90;;;;;;4974775;28;20490;-63
2020/12/08 14:43:59;;;;;;;24.80;19.33;;;6.00;99.90;;;;;;4974348;28;20827;-64
2020/12/08 14:46:28;;;;;;;27.63;18.60;;;5.90;99.90;;;;;;4974458;28;20486;-63
2020/12/08 14:48:54;;;;;;;29.13;19.50;;;5.90;99.90;;;;;;4974785;28;20505;-63
2020/12/08 14:51:20;;;;;;;23.77;18.80;;;5.80;99.90;;;;;;4974443;28;20975;-63
2020/12/08 14:53:46;;;;;;;24.33;19.67;;;5.80;99.90;;;;;;4974186;28;20962;-63
2020/12/08 14:56:17;;;;;;;23.03;18.60;;;5.70;99.90;;;;;;4974662;28;20457;-62
2020/12/08 14:58:44;;;;;;;22.97;18.13;;;5.60;99.90;;;;;;4974844;28;20438;-63
2020/12/08 15:01:10;;;;;;;28.57;20.90;;;5.60;99.90;;;;;;4974003;28;20482;-62
2020/12/08 15:03:36;;;;;;;23.73;18.57;;;5.40;99.90;;;;;;4974714;28;20864;-63
2020/12/08 15:06:02;;;;;;;27.63;21.10;;;5.30;99.90;;;;;;4974015;28;20492;-63
2020/12/08 15:08:29;;;;;;;28.43;19.40;;;5.20;99.90;;;;;;4974175;28;20939;-64
2020/12/08 15:10:55;;;;;;;24.73;18.80;;;5.10;99.90;;;;;;4974675;28;20470;-63
2020/12/08 15:13:22;;;;;;;25.87;20.40;;;5.10;99.90;;;;;;4974381;28;20455;-62
2020/12/08 15:15:48;;;;;;;24.00;19.00;;;5.10;99.90;;;;;;4974393;28;20565;-63
2020/12/08 15:18:15;;;;;;;26.90;20.67;;;5.00;99.90;;;;;;4974138;28;20565;-63
2020/12/08 15:20:41;;;;;;;27.07;20.57;;;4.90;99.90;;;;;;4974147;28;20486;-63
2020/12/08 15:23:07;;;;;;;25.20;19.50;;;4.80;99.90;;;;;;4974472;28;20459;-64
2020/12/08 15:25:33;;;;;;;27.07;20.60;;;4.80;99.90;;;;;;4974266;28;21028;-64
2020/12/08 15:27:59;;;;;;;25.80;19.87;;;4.80;99.90;;;;;;4974122;28;20463;-64
2020/12/08 15:30:26;;;;;;;33.43;22.07;;;4.90;99.90;;;;;;4974193;28;20447;-64
2020/12/08 15:32:52;;;;;;;25.33;19.97;;;4.80;99.90;;;;;;4973787;28;20974;-63
2020/12/08 15:35:18;;;;;;;32.63;21.00;;;4.90;99.90;;;;;;4973392;28;20807;-63
2020/12/08 15:37:45;;;;;;;27.00;18.77;;;4.90;99.90;;;;;;4973670;28;20456;-62
2020/12/08 15:40:11;;;;;;;28.40;20.83;;;4.80;99.90;;;;;;4976211;28;20541;-62
2020/12/08 15:42:39;;;;;;;26.80;19.07;;;4.80;99.90;;;;;;4977160;28;20888;-63
2020/12/08 15:45:05;;;;;;;28.60;20.77;;;4.70;99.90;;;;;;4977503;28;20800;-64
2020/12/08 15:47:32;;;;;;;37.80;22.03;;;4.70;99.90;;;;;;4977348;28;20453;-64
2020/12/08 15:50:05;;;;;;;31.17;22.10;;;4.60;99.90;;;;;;4977034;28;20461;-63
2020/12/08 15:52:32;;;;;;;33.17;23.37;;;4.50;99.90;;;;;;4977315;28;20554;-62
2020/12/08 15:54:58;;;;;;;28.77;21.03;;;4.20;99.90;;;;;;4977562;28;20505;-63
2020/12/08 15:57:25;;;;;;;33.87;23.63;;;4.20;99.90;;;;;;4977265;28;20453;-63
2020/12/08 15:59:51;;;;;;;34.70;23.90;;;4.10;99.90;;;;;;4977274;28;20798;-64
2020/12/08 16:02:19;;;;;;;32.40;24.60;;;4.10;99.90;;;;;;4976678;28;20493;-63
2020/12/08 16:04:47;;;;;;;40.07;26.13;;;4.00;99.90;;;;;;4977370;28;20454;-63
2020/12/08 16:07:13;;;;;;;34.90;22.97;;;4.00;99.90;;;;;;4977077;28;20947;-63
2020/12/08 16:09:39;;;;;;;31.20;23.43;;;3.90;99.90;;;;;;4977773;28;20454;-63
2020/12/08 16:12:05;;;;;;;35.77;24.03;;;3.90;99.90;;;;;;4977570;28;20471;-62
2020/12/08 16:14:31;;;;;;;33.97;23.43;;;3.90;99.90;;;;;;4977142;28;20459;-63
2020/12/08 16:17:00;;;;;;;32.67;24.00;;;3.90;99.90;;;;;;4977454;28;20509;-62
2020/12/08 16:19:26;;;;;;;32.33;23.00;;;3.80;99.90;;;;;;4978483;28;20538;-63
2020/12/08 16:21:53;;;;;;;37.40;24.57;;;3.80;99.90;;;;;;4976828;28;20541;-63
2020/12/08 16:24:19;;;;;;;32.43;22.17;;;3.80;99.90;;;;;;4977260;28;20451;-64
2020/12/08 16:26:46;;;;;;;36.97;25.30;;;3.70;99.90;;;;;;4977449;28;20507;-64
2020/12/08 16:29:12;;;;;;;31.50;23.30;;;3.70;99.90;;;;;;4976592;28;20451;-63
2020/12/08 16:31:38;;;;;;;37.23;23.70;;;3.70;99.90;;;;;;4977014;28;20470;-64
2020/12/08 16:34:05;;;;;;;35.80;24.10;;;3.60;99.90;;;;;;4977401;28;20450;-63
2020/12/08 16:36:31;;;;;;;37.90;24.67;;;3.60;99.90;;;;;;4976966;28;20458;-63
2020/12/08 16:38:59;;;;;;;32.63;23.10;;;3.60;99.90;;;;;;4976677;28;20446;-63
2020/12/08 16:41:29;;;;;;;27.70;20.90;;;3.60;99.90;;;;;;4976544;28;20633;-63
2020/12/08 16:43:56;;;;;;;36.50;23.43;;;3.60;99.90;;;;;;4976746;28;20486;-63
2020/12/08 16:46:22;;;;;;;33.00;24.20;;;3.70;99.90;;;;;;4976341;28;20806;-63
2020/12/08 16:48:49;;;;;;;36.53;23.50;;;3.70;99.90;;;;;;4976114;28;20948;-64
2020/12/08 16:51:15;;;;;;;36.77;25.30;;;3.60;99.90;;;;;;4976037;28;20525;-64
2020/12/08 16:53:41;;;;;;;34.47;24.70;;;3.60;99.90;;;;;;4976332;28;20455;-62
2020/12/08 16:56:08;;;;;;;36.93;26.13;;;3.60;99.90;;;;;;4976357;28;20459;-63
2020/12/08 16:58:34;;;;;;;33.37;25.77;;;3.60;99.90;;;;;;4976405;28;20458;-64
2020/12/08 17:01:00;;;;;;;31.60;23.20;;;3.60;99.90;;;;;;4975978;28;20487;-64
2020/12/08 17:03:27;;;;;;;30.77;22.20;;;3.70;99.90;;;;;;4975956;28;20453;-64
2020/12/08 17:05:53;;;;;;;29.77;21.43;;;3.60;99.90;;;;;;4975696;28;20939;-64
2020/12/08 17:08:20;;;;;;;31.00;22.57;;;3.60;99.90;;;;;;4976975;28;20462;-65
2020/12/08 17:10:46;;;;;;;29.57;21.67;;;3.60;99.90;;;;;;4976271;28;20471;-64
2020/12/08 17:13:13;;;;;;;31.57;23.10;;;3.60;99.90;;;;;;4976376;28;20455;-65
2020/12/08 17:15:39;;;;;;;36.30;24.10;;;3.60;99.90;;;;;;4975965;28;20455;-65
2020/12/08 17:18:05;;;;;;;34.57;21.77;;;3.50;99.90;;;;;;4975863;28;20450;-65
2020/12/08 17:20:32;;;;;;;33.70;23.70;;;3.50;99.90;;;;;;4975561;28;20451;-65
2020/12/08 17:22:59;;;;;;;32.40;22.70;;;3.50;99.90;;;;;;4975822;28;20541;-66
2020/12/08 17:25:26;;;;;;;31.50;23.53;;;3.50;99.90;;;;;;4975876;28;20461;-65
2020/12/08 17:27:52;;;;;;;30.70;22.23;;;3.50;99.90;;;;;;4976638;28;20848;-65
2020/12/08 17:30:19;;;;;;;31.07;22.37;;;3.40;99.90;;;;;;4975276;28;20462;-65
2020/12/08 17:32:47;;;;;;;34.87;23.40;;;3.40;99.90;;;;;;4975683;28;20527;-65
2020/12/08 17:35:14;;;;;;;34.70;22.37;;;3.40;99.90;;;;;;4975660;28;20462;-64
2020/12/08 17:37:42;;;;;;;32.13;23.60;;;3.40;99.90;;;;;;4975460;28;20513;-64